Willcox, Arizona
Current Conditions -  °F | °C
As of 9:51 AM on Friday 31 Oct 2014 (Local Time) from KSAD Reporting Station
Clear Clear  
Wind Chill: 74°   Ceiling: Unl
Heat Index: 74°   Visibility: 10mi
Dew Point: 44°   Wind: 22mph
Humidity: 34%   Direction: 130°SE
Pressure: 30.15"   Gusts: 28mph
Location:  32.25°N, 109.84°W
Report Text: KSAD 311651Z AUTO 13019G24KT 10SM CLR 23/07 A3015 RMK AO2 PK WND 14028/1625 SLP170 T02330067
Loading
Personal Weather Stations






























Interactive Weather Map
Tropical Storm Tracking
New forecast layout! Learn more

10-Day Weather Forecast

Advertisements
Track Severe Weather on mobile